createdAt,value
2019-03-28T00:00:51.976Z,11.33
2019-03-28T00:03:20.538Z,11.10
2019-03-28T00:05:49.013Z,10.87
2019-03-28T00:08:38.570Z,11.03
2019-03-28T00:11:14.735Z,10.50
2019-03-28T00:13:46.540Z,11.07
2019-03-28T00:16:18.547Z,10.53
2019-03-28T00:18:46.975Z,10.20
2019-03-28T00:21:18.644Z,10.27
2019-03-28T00:24:09.904Z,10.80
2019-03-28T00:26:49.039Z,11.10
2019-03-28T00:29:20.284Z,11.73
2019-03-28T00:31:49.730Z,10.37
2019-03-28T00:34:18.136Z,11.57
2019-03-28T00:36:46.577Z,11.10
2019-03-28T00:39:15.267Z,10.50
2019-03-28T00:41:43.918Z,11.27
2019-03-28T00:44:12.314Z,11.07
2019-03-28T00:46:40.737Z,11.23
2019-03-28T00:49:09.161Z,12.33
2019-03-28T00:51:37.583Z,11.73
2019-03-28T00:54:06.023Z,12.03
2019-03-28T00:56:46.634Z,11.73
2019-03-28T00:59:04.643Z,12.13
2019-03-28T01:01:33.057Z,12.53
2019-03-28T01:04:02.273Z,12.33
2019-03-28T01:06:30.795Z,11.10
2019-03-28T01:08:59.202Z,11.63
2019-03-28T01:11:27.663Z,12.80
2019-03-28T01:13:56.072Z,12.83
2019-03-28T01:16:24.506Z,11.67
2019-03-28T01:18:52.910Z,11.87
2019-03-28T01:21:21.330Z,11.97
2019-03-28T01:23:49.739Z,12.13
2019-03-28T01:26:18.357Z,11.53
2019-03-28T01:28:47.095Z,11.70
2019-03-28T01:31:15.536Z,13.97
2019-03-28T01:33:44.006Z,13.07
2019-03-28T01:36:13.105Z,13.47
2019-03-28T01:38:41.609Z,12.23
2019-03-28T01:41:10.026Z,13.30
2019-03-28T01:43:38.458Z,13.60
2019-03-28T01:46:06.903Z,13.57
2019-03-28T01:48:48.966Z,12.53
2019-03-28T01:51:26.395Z,13.50
2019-03-28T01:53:54.883Z,14.23
2019-03-28T01:56:25.112Z,13.77
2019-03-28T01:58:53.641Z,14.20
2019-03-28T02:01:26.648Z,14.40
2019-03-28T02:03:55.140Z,14.90
2019-03-28T02:06:29.962Z,15.03
2019-03-28T02:08:58.402Z,15.23
2019-03-28T02:11:26.874Z,14.10
2019-03-28T02:13:55.323Z,14.53
2019-03-28T02:16:23.891Z,16.27
2019-03-28T02:18:52.354Z,15.10
2019-03-28T02:21:20.966Z,16.30
2019-03-28T02:23:49.382Z,14.97
2019-03-28T02:26:19.242Z,14.83
2019-03-28T02:28:49.066Z,15.90
2019-03-28T02:31:43.345Z,15.87
2019-03-28T02:34:11.755Z,15.50
2019-03-28T02:36:40.203Z,16.73
2019-03-28T02:39:08.620Z,16.20
2019-03-28T02:41:37.061Z,16.70
2019-03-28T02:44:05.502Z,16.17
2019-03-28T02:46:33.927Z,16.53
2019-03-28T02:49:02.323Z,18.87
2019-03-28T02:51:30.745Z,17.40
2019-03-28T02:53:59.468Z,15.87
2019-03-28T02:56:27.945Z,17.47
2019-03-28T02:58:56.348Z,16.60
2019-03-28T03:01:24.806Z,16.57
2019-03-28T03:03:53.222Z,17.03
2019-03-28T03:06:24.146Z,15.90
2019-03-28T03:08:52.627Z,16.00
2019-03-28T03:11:21.103Z,16.23
2019-03-28T03:13:49.503Z,15.97
2019-03-28T03:16:18.186Z,16.30
2019-03-28T03:18:46.610Z,16.77
2019-03-28T03:21:15.053Z,16.17
2019-03-28T03:23:43.484Z,15.13
2019-03-28T03:26:11.941Z,15.97
2019-03-28T03:28:40.418Z,15.83
2019-03-28T03:31:08.869Z,15.63
2019-03-28T03:33:37.883Z,44.63
2019-03-28T03:36:06.483Z,29.57
2019-03-28T03:38:34.911Z,20.13
2019-03-28T03:41:03.434Z,17.83
2019-03-28T03:43:31.914Z,19.60
2019-03-28T03:46:01.646Z,18.57
2019-03-28T03:48:30.330Z,18.80
2019-03-28T03:50:58.762Z,18.13
2019-03-28T03:53:27.250Z,19.97
2019-03-28T03:55:55.692Z,18.60
2019-03-28T03:58:24.108Z,21.03
2019-03-28T04:00:52.553Z,19.73
2019-03-28T04:03:20.996Z,22.13
2019-03-28T04:05:49.427Z,18.40
2019-03-28T04:08:17.830Z,19.53
2019-03-28T04:10:46.258Z,17.83
2019-03-28T04:13:14.671Z,17.70
2019-03-28T04:15:43.551Z,18.53
2019-03-28T04:18:12.003Z,19.87
2019-03-28T04:20:40.554Z,20.07
2019-03-28T04:23:08.992Z,18.23
2019-03-28T04:25:37.398Z,19.17
2019-03-28T04:28:05.846Z,18.60
2019-03-28T04:30:34.252Z,18.70
2019-03-28T04:33:02.689Z,18.07
2019-03-28T04:35:31.090Z,18.03
2019-03-28T04:37:59.531Z,18.67
2019-03-28T04:40:27.979Z,19.33
2019-03-28T04:42:56.430Z,19.70
2019-03-28T04:45:24.851Z,20.73
2019-03-28T04:48:01.503Z,20.53
2019-03-28T04:50:30.142Z,19.50
2019-03-28T04:52:58.572Z,20.60
2019-03-28T04:55:26.995Z,20.43
2019-03-28T04:57:55.649Z,20.03
2019-03-28T05:00:24.217Z,21.17
2019-03-28T05:02:52.731Z,18.83
2019-03-28T05:05:21.148Z,19.63
2019-03-28T05:07:49.570Z,20.03
2019-03-28T05:10:17.985Z,19.97
2019-03-28T05:12:46.433Z,19.23
2019-03-28T05:15:14.941Z,19.50
2019-03-28T05:17:43.353Z,19.50
2019-03-28T05:20:13.443Z,19.57
2019-03-28T05:22:42.246Z,19.23
2019-03-28T05:25:10.730Z,19.77
2019-03-28T05:27:39.171Z,19.83
2019-03-28T05:30:13.918Z,20.37
2019-03-28T05:32:42.961Z,18.07
2019-03-28T05:35:11.492Z,20.87
2019-03-28T05:37:40.339Z,21.37
2019-03-28T05:40:28.088Z,21.17
2019-03-28T05:42:56.529Z,21.77
2019-03-28T05:45:25.184Z,21.13
2019-03-28T05:47:53.603Z,21.77
2019-03-28T05:50:22.034Z,22.47
2019-03-28T05:52:50.468Z,22.23
2019-03-28T05:55:18.904Z,23.43
2019-03-28T05:57:47.346Z,22.80
2019-03-28T06:00:16.102Z,23.13
2019-03-28T06:02:44.678Z,22.90
2019-03-28T06:05:13.185Z,23.57
2019-03-28T06:07:41.860Z,21.50
2019-03-28T06:10:10.643Z,29.90
2019-03-28T06:12:39.036Z,28.80
2019-03-28T06:15:07.828Z,30.97
2019-03-28T06:17:36.579Z,28.97
2019-03-28T06:20:08.395Z,25.70
2019-03-28T06:22:36.843Z,21.37
2019-03-28T06:25:06.080Z,18.33
2019-03-28T06:27:34.701Z,17.57
2019-03-28T06:30:04.080Z,17.77
2019-03-28T06:32:42.329Z,21.80
2019-03-28T06:35:02.643Z,16.13
2019-03-28T06:37:31.071Z,14.63
2019-03-28T06:39:59.563Z,16.57
2019-03-28T06:42:27.984Z,13.47
2019-03-28T06:44:56.390Z,12.93
2019-03-28T06:47:24.881Z,13.77
2019-03-28T06:49:56.674Z,13.83
2019-03-28T06:52:25.144Z,13.27
2019-03-28T06:54:53.636Z,13.47
2019-03-28T06:57:22.063Z,13.77
2019-03-28T06:59:50.559Z,14.73
2019-03-28T07:02:21.761Z,14.03
2019-03-28T07:04:49.216Z,13.27
2019-03-28T07:07:18.643Z,13.77
2019-03-28T07:09:47.254Z,12.80
2019-03-28T07:12:15.669Z,14.13
2019-03-28T07:14:44.089Z,13.77
2019-03-28T07:17:12.538Z,11.93
2019-03-28T07:19:40.977Z,13.33
2019-03-28T07:22:10.274Z,13.40
2019-03-28T07:24:38.893Z,14.40
2019-03-28T07:27:07.322Z,14.93
2019-03-28T07:29:35.734Z,14.83
2019-03-28T07:32:04.201Z,15.03
2019-03-28T07:34:32.648Z,15.33
2019-03-28T07:37:01.071Z,15.23
2019-03-28T07:39:29.522Z,14.90
2019-03-28T07:41:57.932Z,16.53
2019-03-28T07:44:26.381Z,18.47
2019-03-28T07:46:54.785Z,18.50
2019-03-28T07:49:23.209Z,18.67
2019-03-28T07:51:51.626Z,17.00
2019-03-28T07:54:20.056Z,16.53
2019-03-28T07:56:49.415Z,17.57
2019-03-28T07:59:17.985Z,19.63
2019-03-28T08:01:46.438Z,19.20
2019-03-28T08:04:14.874Z,21.10
2019-03-28T08:06:49.676Z,20.37
2019-03-28T08:09:13.439Z,20.97
2019-03-28T08:11:41.871Z,20.90
2019-03-28T08:14:10.301Z,20.33
2019-03-28T08:16:38.761Z,20.03
2019-03-28T08:19:08.145Z,20.80
2019-03-28T08:21:36.706Z,19.90
2019-03-28T08:24:05.303Z,22.00
2019-03-28T08:26:33.728Z,22.47
2019-03-28T08:29:21.514Z,21.33
2019-03-28T08:31:51.847Z,21.47
2019-03-28T08:34:20.284Z,22.00
2019-03-28T08:36:50.079Z,22.03
2019-03-28T08:39:18.838Z,22.13
2019-03-28T08:41:48.900Z,20.33
2019-03-28T08:44:18.752Z,21.83
2019-03-28T08:46:47.224Z,20.77
2019-03-28T08:52:12.468Z,20.43
2019-03-28T08:54:45.658Z,18.90
2019-03-28T08:57:16.381Z,20.50
2019-03-28T08:59:46.543Z,17.90
2019-03-28T09:02:16.523Z,18.20
2019-03-28T09:04:46.752Z,18.33
2019-03-28T09:07:17.538Z,17.40
2019-03-28T09:09:47.360Z,19.40
2019-03-28T09:12:16.120Z,17.17
2019-03-28T09:14:46.606Z,16.93
2019-03-28T09:17:15.511Z,20.23
2019-03-28T09:19:45.550Z,17.37
2019-03-28T09:22:14.461Z,16.13
2019-03-28T09:24:45.184Z,13.27
2019-03-28T09:27:16.120Z,13.87
2019-03-28T09:29:46.735Z,14.23
2019-03-28T09:32:15.540Z,13.60
2019-03-28T09:34:45.678Z,13.73
2019-03-28T09:37:15.408Z,15.07
2019-03-28T09:39:46.320Z,13.47
2019-03-28T09:42:16.533Z,14.93
2019-03-28T09:44:57.627Z,14.73
2019-03-28T09:47:26.846Z,13.83
2019-03-28T09:49:55.664Z,14.27
2019-03-28T09:52:24.243Z,13.23
2019-03-28T09:54:52.921Z,13.00
2019-03-28T09:57:21.388Z,11.67
2019-03-28T09:59:49.807Z,11.63
2019-03-28T10:02:18.277Z,13.33
2019-03-28T10:04:46.745Z,12.80
2019-03-28T10:07:15.872Z,11.87
2019-03-28T10:09:47.542Z,10.60
2019-03-28T10:12:16.445Z,11.93
2019-03-28T10:14:46.656Z,11.93
2019-03-28T10:17:16.094Z,12.60
2019-03-28T10:22:47.032Z,10.77
2019-03-28T10:25:16.902Z,10.43
2019-03-28T10:27:46.574Z,10.20
2019-03-28T10:30:16.818Z,10.67
2019-03-28T10:32:47.197Z,10.03
2019-03-28T10:35:18.733Z,8.03
2019-03-28T10:37:47.196Z,8.70
2019-03-28T10:40:16.607Z,8.43
2019-03-28T10:42:46.913Z,7.00
2019-03-28T10:45:17.288Z,7.97
2019-03-28T10:47:46.116Z,8.50
2019-03-28T10:50:15.870Z,7.17
2019-03-28T10:52:56.367Z,7.83
2019-03-28T10:55:24.831Z,7.50
2019-03-28T10:57:53.266Z,7.47
2019-03-28T11:00:24.404Z,7.73
2019-03-28T11:02:52.320Z,7.80
2019-03-28T11:05:20.789Z,7.20
2019-03-28T11:07:49.294Z,8.20
2019-03-28T11:10:17.799Z,7.80
2019-03-28T11:13:25.721Z,6.97
2019-03-28T11:15:53.169Z,6.47
2019-03-28T11:19:15.805Z,7.40
2019-03-28T11:21:47.001Z,7.10
2019-03-28T11:24:16.899Z,7.97
2019-03-28T11:26:46.385Z,7.43
2019-03-28T11:35:16.969Z,9.00
2019-03-28T11:37:47.437Z,7.53
2019-03-28T11:40:16.977Z,8.50
2019-03-28T11:42:46.731Z,8.17
2019-03-28T11:45:17.184Z,8.00
2019-03-28T11:47:47.179Z,8.17
2019-03-28T11:50:17.572Z,9.60
2019-03-28T11:52:47.703Z,8.27
2019-03-28T11:55:16.523Z,6.93
2019-03-28T11:57:46.529Z,7.27
2019-03-28T12:00:18.161Z,6.00
2019-03-28T12:02:46.585Z,5.50
2019-03-28T12:05:16.472Z,5.20
2019-03-28T12:07:46.816Z,5.53
2019-03-28T12:10:18.450Z,5.80
2019-03-28T12:12:46.918Z,5.63
2019-03-28T12:15:16.866Z,6.10
2019-03-28T12:17:47.539Z,6.53
2019-03-28T12:20:22.067Z,7.33
2019-03-28T12:22:50.492Z,7.17
2019-03-28T12:25:18.956Z,6.53
2019-03-28T12:27:53.417Z,6.00
2019-03-28T12:30:22.795Z,5.97
2019-03-28T12:32:51.214Z,5.20
2019-03-28T12:35:19.660Z,6.03
2019-03-28T12:37:48.101Z,6.30
2019-03-28T12:40:51.305Z,5.07
2019-03-28T12:43:23.457Z,5.40
2019-03-28T12:45:52.637Z,4.50
2019-03-28T12:48:21.217Z,5.10
2019-03-28T12:50:58.623Z,5.07
2019-03-28T12:53:19.815Z,4.93
2019-03-28T12:55:48.270Z,5.00
2019-03-28T12:58:37.546Z,5.43
2019-03-28T13:01:05.984Z,5.57
2019-03-28T13:03:44.875Z,5.10
2019-03-28T13:06:04.602Z,4.90
2019-03-28T13:08:38.981Z,4.53
2019-03-28T13:11:10.024Z,5.00
2019-03-28T13:13:38.496Z,5.07
2019-03-28T13:16:06.946Z,5.43
2019-03-28T13:21:28.215Z,4.13
2019-03-28T13:23:56.663Z,3.83
2019-03-28T13:26:25.102Z,4.10
2019-03-28T13:28:54.109Z,4.80
2019-03-28T13:31:23.096Z,4.87
2019-03-28T13:33:51.519Z,4.40
2019-03-28T13:36:19.958Z,4.90
2019-03-28T13:38:48.375Z,4.00
2019-03-28T13:41:17.763Z,3.80
2019-03-28T13:43:46.496Z,4.07
2019-03-28T13:46:14.913Z,3.60
2019-03-28T13:48:43.325Z,3.93
2019-03-28T13:51:11.747Z,3.97
2019-03-28T13:53:40.183Z,4.73
2019-03-28T13:56:38.323Z,4.03
2019-03-28T13:59:47.232Z,3.90
2019-03-28T14:02:16.667Z,4.57
2019-03-28T14:04:47.003Z,4.10
2019-03-28T14:07:17.429Z,3.53
2019-03-28T14:09:46.965Z,3.97
2019-03-28T14:12:15.571Z,3.60
2019-03-28T14:14:46.329Z,3.80
2019-03-28T14:17:16.976Z,4.40
2019-03-28T14:19:46.502Z,4.13
2019-03-28T14:22:34.429Z,4.30
2019-03-28T14:25:02.850Z,3.80
2019-03-28T14:27:31.515Z,3.40
2019-03-28T14:29:59.949Z,3.90
2019-03-28T14:32:33.176Z,4.00
2019-03-28T14:35:01.737Z,3.80
2019-03-28T14:37:30.151Z,3.33
2019-03-28T14:39:58.578Z,3.67
2019-03-28T14:42:27.016Z,3.63
2019-03-28T14:44:55.492Z,4.03
2019-03-28T14:47:23.911Z,3.90
2019-03-28T14:49:52.488Z,3.67
2019-03-28T14:52:21.034Z,3.50
2019-03-28T14:54:49.482Z,3.30
2019-03-28T14:57:18.076Z,3.07
2019-03-28T14:59:47.134Z,3.57
2019-03-28T15:02:15.568Z,4.03
2019-03-28T15:04:44.050Z,3.23
2019-03-28T15:07:12.460Z,3.40
2019-03-28T15:09:40.892Z,3.33
2019-03-28T15:12:09.317Z,3.17
2019-03-28T15:14:37.763Z,3.70
2019-03-28T15:17:06.177Z,3.70
2019-03-28T15:19:34.586Z,3.47
2019-03-28T15:22:03.177Z,3.50
2019-03-28T15:24:31.827Z,3.50
2019-03-28T15:27:00.586Z,3.40
2019-03-28T15:29:29.233Z,2.90
2019-03-28T15:31:57.696Z,3.20
2019-03-28T15:34:26.122Z,3.03
2019-03-28T15:36:54.546Z,3.30
2019-03-28T15:39:22.957Z,3.60
2019-03-28T15:41:51.414Z,2.97
2019-03-28T15:44:20.011Z,3.03
2019-03-28T15:46:48.467Z,3.03
2019-03-28T15:49:16.913Z,2.50
2019-03-28T15:51:45.341Z,2.40
2019-03-28T15:54:14.103Z,2.40
2019-03-28T15:56:42.683Z,2.40
2019-03-28T15:59:11.092Z,2.27
2019-03-28T16:01:39.501Z,2.40
2019-03-28T16:04:07.913Z,2.60
2019-03-28T16:06:36.395Z,2.60
2019-03-28T16:09:06.513Z,2.60
2019-03-28T16:11:34.951Z,2.60
2019-03-28T16:14:03.376Z,2.80
2019-03-28T16:16:31.794Z,2.90
2019-03-28T16:19:01.588Z,2.70
2019-03-28T16:21:30.537Z,2.90
2019-03-28T16:23:58.949Z,2.73
2019-03-28T16:26:27.408Z,3.17
2019-03-28T16:28:56.535Z,2.47
2019-03-28T16:31:25.782Z,2.80
2019-03-28T16:34:06.205Z,2.60
2019-03-28T16:36:24.526Z,2.40
2019-03-28T16:38:52.962Z,3.23
2019-03-28T16:41:21.378Z,2.77
2019-03-28T16:43:49.785Z,2.70
2019-03-28T16:46:18.474Z,3.13
2019-03-28T16:48:46.902Z,3.03
2019-03-28T16:51:17.530Z,2.90
2019-03-28T16:53:45.473Z,3.10
2019-03-28T16:56:13.896Z,3.37
2019-03-28T16:58:42.378Z,2.77
2019-03-28T17:01:10.887Z,3.20
2019-03-28T17:03:39.347Z,2.90
2019-03-28T17:06:08.260Z,3.13
2019-03-28T17:08:36.656Z,3.10
2019-03-28T17:11:05.101Z,3.23
2019-03-28T17:13:33.785Z,2.80
2019-03-28T17:16:02.549Z,2.90
2019-03-28T17:18:31.416Z,3.17
2019-03-28T17:21:00.154Z,2.90
2019-03-28T17:23:28.582Z,2.23
2019-03-28T17:25:57.069Z,2.60
2019-03-28T17:28:25.487Z,2.70
2019-03-28T17:30:53.934Z,2.80
2019-03-28T17:33:22.346Z,2.57
2019-03-28T17:35:50.756Z,3.20
2019-03-28T17:38:19.287Z,2.50
2019-03-28T17:40:47.685Z,2.70
2019-03-28T17:43:16.211Z,3.03
2019-03-28T17:45:44.685Z,2.73
2019-03-28T17:48:13.121Z,2.73
2019-03-28T17:50:41.540Z,2.90
2019-03-28T17:53:10.509Z,3.00
2019-03-28T17:55:39.224Z,2.70
2019-03-28T17:58:07.774Z,2.80
2019-03-28T18:00:36.250Z,2.40
2019-03-28T18:03:09.636Z,2.90
2019-03-28T18:05:34.946Z,2.63
2019-03-28T18:08:03.407Z,2.87
2019-03-28T18:10:32.122Z,2.90
2019-03-28T18:13:00.564Z,3.03
2019-03-28T18:15:29.039Z,3.10
2019-03-28T18:17:57.484Z,2.90
2019-03-28T18:20:25.958Z,3.20
2019-03-28T18:22:54.374Z,3.10
2019-03-28T18:25:22.810Z,3.13
2019-03-28T18:27:51.470Z,3.10
2019-03-28T18:30:20.235Z,3.17
2019-03-28T18:32:50.107Z,3.30
2019-03-28T18:35:18.689Z,3.23
2019-03-28T18:37:47.118Z,3.13
2019-03-28T18:40:15.611Z,2.90
2019-03-28T18:42:44.023Z,2.90
2019-03-28T18:45:13.156Z,3.30
2019-03-28T18:47:41.647Z,3.07
2019-03-28T18:50:10.749Z,3.23
2019-03-28T18:52:39.165Z,3.60
2019-03-28T18:55:07.935Z,2.97
2019-03-28T18:57:36.487Z,2.97
2019-03-28T19:00:08.776Z,3.03
2019-03-28T19:02:37.206Z,2.90
2019-03-28T19:05:19.114Z,2.87
2019-03-28T19:07:36.851Z,2.60
2019-03-28T19:10:06.581Z,2.70
2019-03-28T19:12:35.037Z,2.27
2019-03-28T19:15:04.557Z,2.80
2019-03-28T19:17:42.360Z,2.30
2019-03-28T19:20:12.796Z,2.60
2019-03-28T19:22:50.350Z,2.50
2019-03-28T19:25:19.033Z,2.57
2019-03-28T19:27:47.471Z,2.63
2019-03-28T19:30:19.908Z,2.73
2019-03-28T19:32:48.903Z,3.03
2019-03-28T19:35:18.326Z,2.40
2019-03-28T19:37:47.653Z,2.40
2019-03-28T19:40:16.810Z,2.97
2019-03-28T19:42:45.241Z,2.70
2019-03-28T19:45:16.725Z,2.83
2019-03-28T19:47:45.142Z,2.70
2019-03-28T19:50:16.614Z,2.70
2019-03-28T19:52:45.052Z,2.73
2019-03-28T19:55:16.519Z,2.97
2019-03-28T19:57:44.932Z,2.90
2019-03-28T20:00:13.473Z,2.70
2019-03-28T20:02:41.885Z,3.00
2019-03-28T20:05:10.502Z,3.00
2019-03-28T20:07:38.941Z,3.03
2019-03-28T20:10:16.432Z,3.33
2019-03-28T20:12:37.922Z,3.33
2019-03-28T20:15:25.638Z,3.00
2019-03-28T20:17:54.092Z,3.47
2019-03-28T20:20:22.751Z,3.30
2019-03-28T20:22:51.190Z,3.80
2019-03-28T20:25:19.594Z,3.40
2019-03-28T20:27:48.015Z,3.30
2019-03-28T20:30:16.561Z,3.90
2019-03-28T20:32:47.694Z,3.37
2019-03-28T20:35:16.153Z,3.87
2019-03-28T20:37:44.600Z,3.40
2019-03-28T20:40:14.294Z,3.90
2019-03-28T20:42:42.715Z,4.07
2019-03-28T20:45:11.829Z,3.57
2019-03-28T20:47:40.263Z,4.10
2019-03-28T20:50:09.703Z,4.03
2019-03-28T20:52:38.122Z,3.70
2019-03-28T20:55:07.597Z,4.07
2019-03-28T20:57:40.209Z,4.20
2019-03-28T21:00:09.027Z,4.00
2019-03-28T21:02:37.559Z,4.10
2019-03-28T21:05:07.645Z,4.30
2019-03-28T21:07:36.436Z,3.77
2019-03-28T21:10:06.870Z,4.10
2019-03-28T21:12:35.286Z,3.67
2019-03-28T21:15:05.450Z,4.00
2019-03-28T21:17:45.719Z,4.40
2019-03-28T21:20:14.227Z,3.80
2019-03-28T21:22:42.621Z,3.93
2019-03-28T21:25:11.101Z,4.30
2019-03-28T21:27:39.530Z,4.50
2019-03-28T21:30:08.180Z,4.13
2019-03-28T21:32:36.697Z,4.07
2019-03-28T21:35:06.954Z,3.93
2019-03-28T21:37:35.389Z,3.93
2019-03-28T21:40:04.731Z,4.27
2019-03-28T21:42:33.132Z,3.90
2019-03-28T21:45:01.611Z,4.53
2019-03-28T21:47:30.029Z,4.20
2019-03-28T21:49:58.451Z,4.70
2019-03-28T21:52:26.867Z,4.93
2019-03-28T21:54:55.312Z,4.07
2019-03-28T21:57:23.740Z,4.27
2019-03-28T21:59:52.173Z,4.83
2019-03-28T22:02:20.661Z,4.27
2019-03-28T22:04:49.087Z,4.33
2019-03-28T22:07:17.512Z,4.63
2019-03-28T22:09:45.927Z,5.03
2019-03-28T22:12:14.336Z,4.50
2019-03-28T22:14:42.758Z,4.40
2019-03-28T22:17:11.163Z,4.40
2019-03-28T22:19:39.609Z,4.80
2019-03-28T22:22:08.029Z,4.63
2019-03-28T22:24:39.055Z,4.93
2019-03-28T22:27:06.577Z,5.10
2019-03-28T22:29:38.183Z,4.70
2019-03-28T22:32:06.565Z,4.43
2019-03-28T22:34:34.988Z,3.90
2019-03-28T22:37:03.786Z,4.30
2019-03-28T22:39:32.464Z,4.07
2019-03-28T22:42:00.868Z,5.00
2019-03-28T22:44:29.343Z,4.53
2019-03-28T22:46:57.758Z,7.07
2019-03-28T22:49:26.173Z,5.60
2019-03-28T22:51:54.613Z,5.40
2019-03-28T22:54:23.039Z,5.00
2019-03-28T22:56:57.123Z,4.83
2019-03-28T22:59:26.903Z,5.30
2019-03-28T23:04:47.768Z,5.47
2019-03-28T23:07:16.215Z,4.93
2019-03-28T23:09:44.665Z,5.33
2019-03-28T23:12:13.085Z,5.30
2019-03-28T23:14:41.577Z,5.03
2019-03-28T23:17:29.369Z,4.30
2019-03-28T23:20:00.465Z,5.47
2019-03-28T23:22:29.054Z,5.33
2019-03-28T23:24:57.465Z,5.27
2019-03-28T23:27:26.916Z,5.00
2019-03-28T23:29:55.502Z,4.97
2019-03-28T23:32:23.901Z,4.50
2019-03-28T23:34:52.329Z,5.37
2019-03-28T23:37:25.055Z,6.33
2019-03-28T23:39:50.895Z,5.33
2019-03-28T23:42:19.310Z,5.40
2019-03-28T23:44:47.785Z,5.97
2019-03-28T23:47:16.202Z,6.40
2019-03-28T23:49:44.626Z,6.27
2019-03-28T23:52:13.038Z,6.33
2019-03-28T23:54:41.487Z,5.73
2019-03-28T23:57:09.937Z,6.10
2019-03-28T23:59:38.457Z,6.77
